createdAt,value
2019-02-23T00:01:14.981Z,39.90
2019-02-23T00:03:44.158Z,39.77
2019-02-23T00:06:13.301Z,40.00
2019-02-23T00:08:42.443Z,39.67
2019-02-23T00:11:11.593Z,38.77
2019-02-23T00:13:40.710Z,35.80
2019-02-23T00:16:09.902Z,42.37
2019-02-23T00:18:39.205Z,38.47
2019-02-23T00:21:08.316Z,31.00
2019-02-23T00:23:37.477Z,37.00
2019-02-23T00:26:06.613Z,31.10
2019-02-23T00:28:35.721Z,34.13
2019-02-23T00:31:04.873Z,31.87
2019-02-23T00:33:34.017Z,35.20
2019-02-23T00:36:03.174Z,32.43
2019-02-23T00:38:32.306Z,39.77
2019-02-23T00:41:01.523Z,34.87
2019-02-23T00:43:30.637Z,35.27
2019-02-23T00:45:59.744Z,37.77
2019-02-23T00:48:28.965Z,32.57
2019-02-23T00:50:58.090Z,30.37
2019-02-23T00:53:27.193Z,29.43
2019-02-23T00:55:56.362Z,30.90
2019-02-23T00:58:25.564Z,27.80
2019-02-23T01:00:54.677Z,27.77
2019-02-23T01:03:23.901Z,34.77
2019-02-23T01:05:53.010Z,32.60
2019-02-23T01:08:22.135Z,28.23
2019-02-23T01:10:58.131Z,27.90
2019-02-23T01:13:22.196Z,27.07
2019-02-23T01:15:51.309Z,24.93
2019-02-23T01:18:20.451Z,30.87
2019-02-23T01:20:49.613Z,28.13
2019-02-23T01:23:19.229Z,26.83
2019-02-23T01:25:48.389Z,26.40
2019-02-23T01:28:17.909Z,27.63
2019-02-23T01:30:47.037Z,26.27
2019-02-23T01:33:16.198Z,31.47
2019-02-23T01:35:45.313Z,23.57
2019-02-23T01:38:14.457Z,26.47
2019-02-23T01:40:43.592Z,27.13
2019-02-23T01:43:12.746Z,32.47
2019-02-23T01:45:42.710Z,30.43
2019-02-23T01:48:11.997Z,30.87
2019-02-23T01:50:41.193Z,27.17
2019-02-23T01:53:10.306Z,27.33
2019-02-23T01:55:39.421Z,32.90
2019-02-23T01:58:08.549Z,30.07
2019-02-23T02:00:38.679Z,29.40
2019-02-23T02:03:07.858Z,24.67
2019-02-23T02:05:36.988Z,31.27
2019-02-23T02:08:06.140Z,29.07
2019-02-23T02:10:35.304Z,27.30
2019-02-23T02:13:04.464Z,27.80
2019-02-23T02:15:33.598Z,23.57
2019-02-23T02:18:02.737Z,20.00
2019-02-23T02:20:32.076Z,25.57
2019-02-23T02:23:01.269Z,22.73
2019-02-23T02:25:30.377Z,22.43
2019-02-23T02:27:59.525Z,20.43
2019-02-23T02:30:28.662Z,24.17
2019-02-23T02:32:57.794Z,21.17
2019-02-23T02:35:27.010Z,20.17
2019-02-23T02:37:56.137Z,24.10
2019-02-23T02:40:25.246Z,17.90
2019-02-23T02:42:54.393Z,29.33
2019-02-23T02:45:23.509Z,22.23
2019-02-23T02:47:52.629Z,20.97
2019-02-23T02:50:24.605Z,25.17
2019-02-23T02:52:52.621Z,19.37
2019-02-23T02:55:21.721Z,24.27
2019-02-23T02:57:50.855Z,23.50
2019-02-23T03:00:19.997Z,25.30
2019-02-23T03:02:49.140Z,26.77
2019-02-23T03:05:18.331Z,31.33
2019-02-23T03:07:47.445Z,23.07
2019-02-23T03:10:16.549Z,27.63
2019-02-23T03:12:45.687Z,24.13
2019-02-23T03:15:14.786Z,26.93
2019-02-23T03:17:43.941Z,25.83
2019-02-23T03:20:13.056Z,23.67
2019-02-23T03:22:42.177Z,26.67
2019-02-23T03:25:11.740Z,22.93
2019-02-23T03:27:40.875Z,22.20
2019-02-23T03:30:11.088Z,19.43
2019-02-23T03:32:40.357Z,35.27
2019-02-23T03:35:09.557Z,20.30
2019-02-23T03:37:38.755Z,29.10
2019-02-23T03:40:09.299Z,23.10
2019-02-23T03:42:38.543Z,23.23
2019-02-23T03:45:07.789Z,23.83
2019-02-23T03:47:36.927Z,23.03
2019-02-23T03:50:06.899Z,26.33
2019-02-23T03:52:36.034Z,25.47
2019-02-23T03:55:05.603Z,27.57
2019-02-23T03:57:34.730Z,25.83
2019-02-23T04:00:04.024Z,23.77
2019-02-23T04:02:33.172Z,22.70
2019-02-23T04:05:02.307Z,25.43
2019-02-23T04:07:31.461Z,21.13
2019-02-23T04:10:00.630Z,20.23
2019-02-23T04:12:29.768Z,27.03
2019-02-23T04:14:58.886Z,24.83
2019-02-23T04:17:28.024Z,22.47
2019-02-23T04:19:57.226Z,22.30
2019-02-23T04:22:26.315Z,27.60
2019-02-23T04:24:55.455Z,28.27
2019-02-23T04:27:24.641Z,26.57
2019-02-23T04:29:53.737Z,22.83
2019-02-23T04:32:22.925Z,28.20
2019-02-23T04:34:52.421Z,30.10
2019-02-23T04:37:21.540Z,27.20
2019-02-23T04:39:50.795Z,27.00
2019-02-23T04:42:19.973Z,28.43
2019-02-23T04:44:49.118Z,29.87
2019-02-23T04:47:18.236Z,30.67
2019-02-23T04:49:53.873Z,33.23
2019-02-23T04:52:23.085Z,28.97
2019-02-23T04:54:52.245Z,27.47
2019-02-23T04:57:21.409Z,27.00
2019-02-23T04:59:50.560Z,28.63
2019-02-23T05:02:19.757Z,32.63
2019-02-23T05:04:48.928Z,27.53
2019-02-23T05:07:18.041Z,24.27
2019-02-23T05:09:47.139Z,31.97
2019-02-23T05:12:16.287Z,32.77
2019-02-23T05:14:45.479Z,33.23
2019-02-23T05:17:14.662Z,35.50
2019-02-23T05:19:43.849Z,30.53
2019-02-23T05:22:13.008Z,38.97
2019-02-23T05:24:42.121Z,41.87
2019-02-23T05:27:11.251Z,35.83
2019-02-23T05:29:40.365Z,39.47
2019-02-23T05:32:09.525Z,37.90
2019-02-23T05:34:38.631Z,41.83
2019-02-23T05:37:07.846Z,44.17
2019-02-23T05:39:36.981Z,41.23
2019-02-23T05:42:06.145Z,42.20
2019-02-23T05:44:35.258Z,37.47
2019-02-23T05:47:04.601Z,41.90
2019-02-23T05:49:36.666Z,43.77
2019-02-23T05:52:04.587Z,35.93
2019-02-23T05:54:33.714Z,50.13
2019-02-23T05:57:02.862Z,42.70
2019-02-23T05:59:31.998Z,38.83
2019-02-23T06:02:01.177Z,34.30
2019-02-23T06:04:30.334Z,33.53
2019-02-23T06:06:59.474Z,33.73
2019-02-23T06:09:28.603Z,32.30
2019-02-23T06:11:57.782Z,34.63
2019-02-23T06:14:26.884Z,27.47
2019-02-23T06:16:56.003Z,34.37
2019-02-23T06:19:25.137Z,32.53
2019-02-23T06:21:54.748Z,28.30
2019-02-23T06:24:24.058Z,27.67
2019-02-23T06:26:54.115Z,34.60
2019-02-23T06:29:23.238Z,35.47
2019-02-23T06:31:52.378Z,33.70
2019-02-23T06:34:21.546Z,39.37
2019-02-23T06:36:50.815Z,38.40
2019-02-23T06:39:19.986Z,41.57
2019-02-23T06:41:49.114Z,48.70
2019-02-23T06:44:18.289Z,46.80
2019-02-23T06:46:47.458Z,46.73
2019-02-23T06:49:16.577Z,44.03
2019-02-23T06:51:45.768Z,36.20
2019-02-23T06:54:14.880Z,39.57
2019-02-23T06:56:43.993Z,44.27
2019-02-23T06:59:13.201Z,43.57
2019-02-23T07:01:42.297Z,35.63
2019-02-23T07:04:11.474Z,38.27
2019-02-23T07:06:40.861Z,36.50
2019-02-23T07:09:10.002Z,33.03
2019-02-23T07:11:39.127Z,34.17
2019-02-23T07:14:08.272Z,34.43
2019-02-23T07:16:37.414Z,36.80
2019-02-23T07:19:06.569Z,35.80
2019-02-23T07:21:35.725Z,35.13
2019-02-23T07:24:04.853Z,42.00
2019-02-23T07:26:34.025Z,33.27
2019-02-23T07:29:03.144Z,34.50
2019-02-23T07:31:32.253Z,28.67
2019-02-23T07:34:01.437Z,32.97
2019-02-23T07:36:30.578Z,28.60
2019-02-23T07:38:59.749Z,37.57
2019-02-23T07:41:28.928Z,37.47
2019-02-23T07:43:58.040Z,34.67
2019-02-23T07:46:27.220Z,31.50
2019-02-23T07:48:56.393Z,35.23
2019-02-23T07:51:25.509Z,38.67
2019-02-23T07:53:54.628Z,34.03
2019-02-23T07:56:23.833Z,45.37
2019-02-23T07:58:52.962Z,43.43
2019-02-23T08:01:22.094Z,43.57
2019-02-23T08:03:51.254Z,44.87
2019-02-23T08:06:20.445Z,39.07
2019-02-23T08:08:49.587Z,45.37
2019-02-23T08:11:18.746Z,44.80
2019-02-23T08:13:47.904Z,43.10
2019-02-23T08:16:17.086Z,38.57
2019-02-23T08:18:46.253Z,39.83
2019-02-23T08:21:15.371Z,39.07
2019-02-23T08:23:44.501Z,37.03
2019-02-23T08:26:13.642Z,38.67
2019-02-23T08:28:42.774Z,37.80
2019-02-23T08:31:13.377Z,44.23
2019-02-23T08:33:42.785Z,37.47
2019-02-23T08:36:11.937Z,34.97
2019-02-23T08:38:41.196Z,40.60
2019-02-23T08:41:10.349Z,36.87
2019-02-23T08:43:39.515Z,33.80
2019-02-23T08:46:08.745Z,33.90
2019-02-23T08:48:37.938Z,33.43
2019-02-23T08:51:07.069Z,35.20
2019-02-23T08:53:36.241Z,34.53
2019-02-23T08:56:05.353Z,25.67
2019-02-23T08:58:34.465Z,36.17
2019-02-23T09:01:03.594Z,28.73
2019-02-23T09:03:32.699Z,32.87
2019-02-23T09:06:01.861Z,30.60
2019-02-23T09:08:31.104Z,34.90
2019-02-23T09:11:00.281Z,32.87
2019-02-23T09:13:29.405Z,38.17
2019-02-23T09:15:58.538Z,34.87
2019-02-23T09:18:27.653Z,34.40
2019-02-23T09:20:56.832Z,25.57
2019-02-23T09:23:25.961Z,32.77
2019-02-23T09:25:57.739Z,28.93
2019-02-23T09:28:26.017Z,27.17
2019-02-23T09:30:55.150Z,25.13
2019-02-23T09:33:24.295Z,27.60
2019-02-23T09:35:53.437Z,27.90
2019-02-23T09:38:22.645Z,19.33
2019-02-23T09:40:51.745Z,12.50
2019-02-23T09:43:20.881Z,13.43
2019-02-23T09:45:50.049Z,21.00
2019-02-23T09:48:19.177Z,21.43
2019-02-23T09:50:48.286Z,15.60
2019-02-23T09:53:17.405Z,22.33
2019-02-23T09:55:46.550Z,19.00
2019-02-23T09:58:15.648Z,17.77
2019-02-23T10:00:44.762Z,14.97
2019-02-23T10:03:13.865Z,19.03
2019-02-23T10:05:43.028Z,16.17
2019-02-23T10:08:12.146Z,25.37
2019-02-23T10:10:41.256Z,15.40
2019-02-23T10:13:10.473Z,17.43
2019-02-23T10:15:39.625Z,19.17
2019-02-23T10:18:08.726Z,18.47
2019-02-23T10:20:37.842Z,20.10
2019-02-23T10:23:07.038Z,20.57
2019-02-23T10:25:36.248Z,21.77
2019-02-23T10:28:05.572Z,24.80
2019-02-23T10:30:34.683Z,20.60
2019-02-23T10:33:03.828Z,19.40
2019-02-23T10:35:32.968Z,18.53
2019-02-23T10:38:02.097Z,18.13
2019-02-23T10:40:31.330Z,19.23
2019-02-23T10:43:00.561Z,17.40
2019-02-23T10:45:29.695Z,19.30
2019-02-23T10:47:58.875Z,17.87
2019-02-23T10:50:28.061Z,21.50
2019-02-23T10:52:57.181Z,23.80
2019-02-23T10:55:26.301Z,24.00
2019-02-23T10:57:55.425Z,28.57
2019-02-23T11:00:24.552Z,28.07
2019-02-23T11:02:53.753Z,22.80
2019-02-23T11:05:23.261Z,25.87
2019-02-23T11:07:52.452Z,22.07
2019-02-23T11:10:21.962Z,22.70
2019-02-23T11:12:51.205Z,22.93
2019-02-23T11:15:21.477Z,20.27
2019-02-23T11:17:50.584Z,22.13
2019-02-23T11:20:20.101Z,25.10
2019-02-23T11:22:49.323Z,25.50
2019-02-23T11:25:18.429Z,27.80
2019-02-23T11:27:47.578Z,24.63
2019-02-23T11:30:16.929Z,20.73
2019-02-23T11:32:46.083Z,24.20
2019-02-23T11:35:17.481Z,21.57
2019-02-23T11:37:46.081Z,23.70
2019-02-23T11:40:15.208Z,27.50
2019-02-23T11:42:44.325Z,24.60
2019-02-23T11:45:13.450Z,22.37
2019-02-23T11:47:42.589Z,26.37
2019-02-23T11:50:11.753Z,26.37
2019-02-23T11:52:40.871Z,26.93
2019-02-23T11:55:09.989Z,30.60
2019-02-23T11:57:39.125Z,33.37
2019-02-23T12:00:08.896Z,30.43
2019-02-23T12:02:38.018Z,22.67
2019-02-23T12:05:07.663Z,27.30
2019-02-23T12:07:36.793Z,25.60
2019-02-23T12:10:07.605Z,23.70
2019-02-23T12:12:36.709Z,24.80
2019-02-23T12:15:06.345Z,24.40
2019-02-23T12:17:35.617Z,33.13
2019-02-23T12:20:04.841Z,44.13
2019-02-23T12:22:33.973Z,27.57
2019-02-23T12:25:03.088Z,32.43
2019-02-23T12:27:32.222Z,27.17
2019-02-23T12:30:01.419Z,24.50
2019-02-23T12:32:30.540Z,21.03
2019-02-23T12:34:59.713Z,27.87
2019-02-23T12:37:28.813Z,29.93
2019-02-23T12:39:57.920Z,28.47
2019-02-23T12:42:27.718Z,24.37
2019-02-23T12:44:57.052Z,25.87
2019-02-23T12:47:26.171Z,29.03
2019-02-23T12:49:55.270Z,25.73
2019-02-23T12:52:24.398Z,29.67
2019-02-23T12:54:53.513Z,28.33
2019-02-23T12:57:22.725Z,28.43
2019-02-23T12:59:51.850Z,19.90
2019-02-23T13:02:20.997Z,21.63
2019-02-23T13:04:50.345Z,21.57
2019-02-23T13:07:19.561Z,25.20
2019-02-23T13:09:51.834Z,21.40
2019-02-23T13:12:28.737Z,25.17
2019-02-23T13:15:18.871Z,49.07
2019-02-23T13:18:16.870Z,40.53
2019-02-23T13:21:07.745Z,33.23
2019-02-23T13:23:56.733Z,25.87
2019-02-23T13:26:57.253Z,28.23
2019-02-23T13:29:39.677Z,22.60
2019-02-23T13:33:14.353Z,27.47
2019-02-23T13:36:39.753Z,31.10
2019-02-23T13:39:34.065Z,25.03
2019-02-23T13:42:49.474Z,24.70
2019-02-23T13:45:38.398Z,28.23
2019-02-23T13:48:39.201Z,29.93
2019-02-23T13:51:34.688Z,27.67
2019-02-23T13:54:38.614Z,29.57
2019-02-23T13:57:42.925Z,29.57
2019-02-23T14:00:46.585Z,43.90
2019-02-23T14:03:42.209Z,80.77
2019-02-23T14:06:55.427Z,67.07
2019-02-23T14:10:08.393Z,31.63
2019-02-23T14:13:20.082Z,38.47
2019-02-23T14:16:36.185Z,32.87
2019-02-23T14:19:43.510Z,28.87
2019-02-23T14:22:26.737Z,32.93
2019-02-23T14:25:42.131Z,30.17
2019-02-23T14:29:10.565Z,24.63
2019-02-23T14:32:28.197Z,25.03
2019-02-23T14:35:27.202Z,27.97
2019-02-23T14:38:32.364Z,33.93
2019-02-23T14:41:15.489Z,46.07
2019-02-23T14:44:13.608Z,39.83
2019-02-23T14:47:08.378Z,32.87
2019-02-23T14:50:17.385Z,29.80
2019-02-23T14:53:03.261Z,25.97
2019-02-23T14:56:29.049Z,41.07
2019-02-23T14:59:37.036Z,50.07
2019-02-23T15:02:32.205Z,49.37
2019-02-23T15:05:35.421Z,39.23
2019-02-23T15:08:30.013Z,32.93
2019-02-23T15:11:33.875Z,31.00
2019-02-23T15:14:34.442Z,31.23
2019-02-23T15:17:51.549Z,32.03
2019-02-23T15:20:58.018Z,30.70
2019-02-23T15:24:11.221Z,36.30
2019-02-23T15:27:24.391Z,34.77
2019-02-23T15:30:46.815Z,31.47
2019-02-23T15:33:51.326Z,27.83
2019-02-23T15:37:00.231Z,24.63
2019-02-23T15:40:07.584Z,25.73
2019-02-23T15:43:14.932Z,26.70
2019-02-23T15:46:31.792Z,26.87
2019-02-23T15:49:30.055Z,26.17
2019-02-23T15:52:00.104Z,32.73
2019-02-23T15:54:29.424Z,27.30
2019-02-23T15:56:58.705Z,27.57
2019-02-23T15:59:27.922Z,28.20
2019-02-23T16:01:57.066Z,31.43
2019-02-23T16:04:26.193Z,23.67
2019-02-23T16:06:55.373Z,26.97
2019-02-23T16:09:24.485Z,27.70
2019-02-23T16:11:53.677Z,34.80
2019-02-23T16:14:22.818Z,29.50
2019-02-23T16:16:52.146Z,26.47
2019-02-23T16:19:21.253Z,35.03
2019-02-23T16:21:52.791Z,41.07
2019-02-23T16:24:21.278Z,37.83
2019-02-23T16:26:50.431Z,39.57
2019-02-23T16:29:19.621Z,48.37
2019-02-23T16:31:48.746Z,55.97
2019-02-23T16:34:17.927Z,55.67
2019-02-23T16:36:47.134Z,52.80
2019-02-23T16:39:16.270Z,46.87
2019-02-23T16:41:45.466Z,37.07
2019-02-23T16:44:14.581Z,39.57
2019-02-23T16:46:46.322Z,33.60
2019-02-23T16:49:14.543Z,38.20
2019-02-23T16:51:43.693Z,41.63
2019-02-23T16:54:12.809Z,43.67
2019-02-23T16:56:41.912Z,40.90
2019-02-23T16:59:11.049Z,40.30
2019-02-23T17:01:40.179Z,45.07
2019-02-23T17:04:09.444Z,44.63
2019-02-23T17:06:38.661Z,41.23
2019-02-23T17:09:08.042Z,36.57
2019-02-23T17:11:37.166Z,41.97
2019-02-23T17:14:06.363Z,44.50
2019-02-23T17:16:35.567Z,49.07
2019-02-23T17:19:04.753Z,47.97
2019-02-23T17:21:33.934Z,49.10
2019-02-23T17:24:03.118Z,46.83
2019-02-23T17:26:32.385Z,49.07
2019-02-23T17:29:01.577Z,52.67
2019-02-23T17:31:30.812Z,48.33
2019-02-23T17:33:59.997Z,48.57
2019-02-23T17:36:29.115Z,52.83
2019-02-23T17:38:58.277Z,48.70
2019-02-23T17:41:27.441Z,44.10
2019-02-23T17:43:56.604Z,47.50
2019-02-23T17:46:26.029Z,54.57
2019-02-23T17:48:55.199Z,54.83
2019-02-23T17:51:24.337Z,53.00
2019-02-23T17:53:53.494Z,53.03
2019-02-23T17:56:22.797Z,55.87
2019-02-23T17:58:52.038Z,54.03
2019-02-23T18:01:21.261Z,56.90
2019-02-23T18:03:50.409Z,53.43
2019-02-23T18:06:19.553Z,46.03
2019-02-23T18:08:48.704Z,49.90
2019-02-23T18:11:17.875Z,46.43
2019-02-23T18:13:46.976Z,40.00
2019-02-23T18:16:16.092Z,40.87
2019-02-23T18:18:45.245Z,38.80
2019-02-23T18:21:14.461Z,35.00
2019-02-23T18:23:43.637Z,39.17
2019-02-23T18:26:18.965Z,36.27
2019-02-23T18:28:43.729Z,37.53
2019-02-23T18:31:12.882Z,38.57
2019-02-23T18:33:41.989Z,31.40
2019-02-23T18:36:11.149Z,36.17
2019-02-23T18:38:40.297Z,34.70
2019-02-23T18:41:09.621Z,37.30
2019-02-23T18:43:38.772Z,39.73
2019-02-23T18:46:07.902Z,35.57
2019-02-23T18:48:37.109Z,37.20
2019-02-23T18:51:06.236Z,39.83
2019-02-23T18:53:35.334Z,40.90
2019-02-23T18:56:05.944Z,38.23
2019-02-23T18:58:35.074Z,36.83
2019-02-23T19:01:04.198Z,43.53
2019-02-23T19:03:33.431Z,39.33
2019-02-23T19:06:02.597Z,39.37
2019-02-23T19:08:31.709Z,46.37
2019-02-23T19:11:00.809Z,44.47
2019-02-23T19:13:29.964Z,50.53
2019-02-23T19:15:59.159Z,45.17
2019-02-23T19:18:28.257Z,47.07
2019-02-23T19:20:57.462Z,52.70
2019-02-23T19:23:26.621Z,49.70
2019-02-23T19:25:55.733Z,56.27
2019-02-23T19:28:24.933Z,54.13
2019-02-23T19:30:54.077Z,58.07
2019-02-23T19:33:23.292Z,55.37
2019-02-23T19:35:52.397Z,53.00
2019-02-23T19:38:21.505Z,61.57
2019-02-23T19:40:50.612Z,70.70
2019-02-23T19:43:19.741Z,72.80
2019-02-23T19:45:48.853Z,72.40
2019-02-23T19:48:17.977Z,70.47
2019-02-23T19:50:50.877Z,63.20
2019-02-23T19:53:20.013Z,57.93
2019-02-23T19:55:49.157Z,57.77
2019-02-23T19:58:18.294Z,61.20
2019-02-23T20:00:47.422Z,64.63
2019-02-23T20:03:16.533Z,58.73
2019-02-23T20:05:45.733Z,61.13
2019-02-23T20:08:14.907Z,58.07
2019-02-23T20:10:44.050Z,54.40
2019-02-23T20:13:13.197Z,56.93
2019-02-23T20:15:42.314Z,56.27
2019-02-23T20:18:11.437Z,51.93
2019-02-23T20:20:40.590Z,58.33
2019-02-23T20:23:09.813Z,59.63
2019-02-23T20:25:38.928Z,62.70
2019-02-23T20:28:08.169Z,51.30
2019-02-23T20:30:37.319Z,54.13
2019-02-23T20:33:06.453Z,49.50
2019-02-23T20:35:35.657Z,56.07
2019-02-23T20:38:04.925Z,54.03
2019-02-23T20:40:34.038Z,51.17
2019-02-23T20:43:03.193Z,51.27
2019-02-23T20:45:32.321Z,50.07
2019-02-23T20:48:01.581Z,53.33
2019-02-23T20:50:30.717Z,49.67
2019-02-23T20:52:59.853Z,55.87
2019-02-23T20:55:28.990Z,56.07
2019-02-23T20:57:58.205Z,61.03
2019-02-23T21:00:27.401Z,62.40
2019-02-23T21:02:56.621Z,48.03
2019-02-23T21:05:25.840Z,56.37
2019-02-23T21:07:55.037Z,55.33
2019-02-23T21:10:24.223Z,55.67
2019-02-23T21:12:53.531Z,57.97
2019-02-23T21:15:22.653Z,56.30
2019-02-23T21:17:51.760Z,58.40
2019-02-23T21:20:20.937Z,57.93
2019-02-23T21:22:50.073Z,63.33
2019-02-23T21:25:19.214Z,55.43
2019-02-23T21:27:48.424Z,59.27
2019-02-23T21:30:17.625Z,67.93
2019-02-23T21:32:46.755Z,65.40
2019-02-23T21:35:15.955Z,102.07
2019-02-23T21:37:45.085Z,91.90
2019-02-23T21:40:14.289Z,69.57
2019-02-23T21:42:43.498Z,75.03
2019-02-23T21:45:12.654Z,64.20
2019-02-23T21:47:41.794Z,69.30
2019-02-23T21:50:11.054Z,59.23
2019-02-23T21:52:40.301Z,65.40
2019-02-23T21:55:09.486Z,69.60
2019-02-23T21:57:38.875Z,65.57
2019-02-23T22:00:08.139Z,69.37
2019-02-23T22:02:37.383Z,62.97
2019-02-23T22:05:12.443Z,74.77
2019-02-23T22:07:37.713Z,74.53
2019-02-23T22:10:07.483Z,69.77
2019-02-23T22:12:36.774Z,65.13
2019-02-23T22:15:06.427Z,73.00
2019-02-23T22:17:35.607Z,67.70
2019-02-23T22:20:05.045Z,60.13
2019-02-23T22:22:34.208Z,60.87
2019-02-23T22:25:03.343Z,65.03
2019-02-23T22:27:32.470Z,62.20
2019-02-23T22:30:01.633Z,60.13
2019-02-23T22:32:30.912Z,64.57
2019-02-23T22:35:00.546Z,62.23
2019-02-23T22:37:29.834Z,67.50
2019-02-23T22:39:58.953Z,68.13
2019-02-23T22:42:28.067Z,74.70
2019-02-23T22:44:57.184Z,72.13
2019-02-23T22:47:26.380Z,76.13
2019-02-23T22:49:55.498Z,84.10
2019-02-23T22:52:24.665Z,77.83
2019-02-23T22:54:53.801Z,80.73
2019-02-23T22:57:22.916Z,80.80
2019-02-23T22:59:52.054Z,69.60
2019-02-23T23:02:21.360Z,81.13
2019-02-23T23:04:50.481Z,73.40
2019-02-23T23:07:19.605Z,74.47
2019-02-23T23:09:48.709Z,79.27
2019-02-23T23:12:17.813Z,73.83
2019-02-23T23:14:46.970Z,72.60
2019-02-23T23:17:16.097Z,77.57
2019-02-23T23:19:45.202Z,86.90
2019-02-23T23:22:14.313Z,98.80
2019-02-23T23:24:43.436Z,74.33
2019-02-23T23:27:12.568Z,87.63
2019-02-23T23:29:41.701Z,82.17
2019-02-23T23:32:10.797Z,80.70
2019-02-23T23:34:39.986Z,74.07
2019-02-23T23:37:09.131Z,71.50
2019-02-23T23:39:38.256Z,77.37
2019-02-23T23:42:07.436Z,69.40
2019-02-23T23:44:36.552Z,70.10
2019-02-23T23:47:05.757Z,80.90
2019-02-23T23:49:34.894Z,76.17
2019-02-23T23:52:04.091Z,76.70
2019-02-23T23:54:33.289Z,65.07
2019-02-23T23:57:02.546Z,65.17
2019-02-23T23:59:31.658Z,60.77
